sensor_id;sensor_type;location;lat;lon;timestamp;P1;durP1;ratioP1;P2;durP2;ratioP2
47896;SDS011;39629;51.400;5.494;2023-12-20T00:04:10;7.50;;;1.95;;
47896;SDS011;39629;51.400;5.494;2023-12-20T00:09:13;9.80;;;1.55;;
47896;SDS011;39629;51.400;5.494;2023-12-20T00:14:14;8.68;;;2.03;;
47896;SDS011;39629;51.400;5.494;2023-12-20T00:19:16;6.85;;;1.40;;
47896;SDS011;39629;51.400;5.494;2023-12-20T00:24:19;10.27;;;1.50;;
47896;SDS011;39629;51.400;5.494;2023-12-20T00:29:21;9.20;;;1.30;;
47896;SDS011;39629;51.400;5.494;2023-12-20T00:34:22;6.13;;;1.23;;
47896;SDS011;39629;51.400;5.494;2023-12-20T00:39:25;8.75;;;1.48;;
47896;SDS011;39629;51.400;5.494;2023-12-20T00:44:27;6.95;;;1.30;;
47896;SDS011;39629;51.400;5.494;2023-12-20T00:49:29;13.38;;;1.58;;
47896;SDS011;39629;51.400;5.494;2023-12-20T00:54:32;8.80;;;1.60;;
47896;SDS011;39629;51.400;5.494;2023-12-20T00:59:34;11.50;;;1.20;;
47896;SDS011;39629;51.400;5.494;2023-12-20T01:04:36;12.00;;;1.38;;
47896;SDS011;39629;51.400;5.494;2023-12-20T01:09:39;5.60;;;1.00;;
47896;SDS011;39629;51.400;5.494;2023-12-20T01:14:41;7.80;;;1.20;;
47896;SDS011;39629;51.400;5.494;2023-12-20T01:19:43;6.43;;;1.10;;
47896;SDS011;39629;51.400;5.494;2023-12-20T01:24:46;11.18;;;1.35;;
47896;SDS011;39629;51.400;5.494;2023-12-20T01:29:47;7.57;;;1.33;;
47896;SDS011;39629;51.400;5.494;2023-12-20T01:34:49;8.20;;;1.48;;
47896;SDS011;39629;51.400;5.494;2023-12-20T01:39:52;9.13;;;1.30;;
47896;SDS011;39629;51.400;5.494;2023-12-20T01:44:54;7.93;;;1.30;;
47896;SDS011;39629;51.400;5.494;2023-12-20T01:49:55;7.03;;;1.20;;
47896;SDS011;39629;51.400;5.494;2023-12-20T01:54:59;9.43;;;1.38;;
47896;SDS011;39629;51.400;5.494;2023-12-20T02:00:03;7.97;;;1.40;;
47896;SDS011;39629;51.400;5.494;2023-12-20T02:05:06;8.82;;;1.38;;
47896;SDS011;39629;51.400;5.494;2023-12-20T02:10:10;13.32;;;1.38;;
47896;SDS011;39629;51.400;5.494;2023-12-20T02:15:13;7.37;;;1.43;;
47896;SDS011;39629;51.400;5.494;2023-12-20T02:20:15;7.13;;;1.30;;
47896;SDS011;39629;51.400;5.494;2023-12-20T02:25:18;10.23;;;1.52;;
47896;SDS011;39629;51.400;5.494;2023-12-20T02:30:20;10.15;;;1.63;;
47896;SDS011;39629;51.400;5.494;2023-12-20T02:35:21;7.72;;;1.70;;
47896;SDS011;39629;51.400;5.494;2023-12-20T02:40:24;8.52;;;2.10;;
47896;SDS011;39629;51.400;5.494;2023-12-20T02:45:26;9.05;;;1.50;;
47896;SDS011;39629;51.400;5.494;2023-12-20T02:50:28;7.63;;;1.67;;
47896;SDS011;39629;51.400;5.494;2023-12-20T02:55:31;8.77;;;1.92;;
47896;SDS011;39629;51.400;5.494;2023-12-20T03:00:33;7.88;;;1.70;;
47896;SDS011;39629;51.400;5.494;2023-12-20T03:05:35;10.98;;;1.90;;
47896;SDS011;39629;51.400;5.494;2023-12-20T03:10:38;9.45;;;1.88;;
47896;SDS011;39629;51.400;5.494;2023-12-20T03:15:39;7.35;;;1.95;;
47896;SDS011;39629;51.400;5.494;2023-12-20T03:20:41;7.50;;;1.90;;
47896;SDS011;39629;51.400;5.494;2023-12-20T03:25:44;10.15;;;1.88;;
47896;SDS011;39629;51.400;5.494;2023-12-20T03:30:46;9.65;;;2.20;;
47896;SDS011;39629;51.400;5.494;2023-12-20T03:35:47;13.52;;;2.10;;
47896;SDS011;39629;51.400;5.494;2023-12-20T03:40:50;13.40;;;2.13;;
47896;SDS011;39629;51.400;5.494;2023-12-20T03:45:52;9.82;;;2.28;;
47896;SDS011;39629;51.400;5.494;2023-12-20T03:50:53;10.45;;;2.65;;
47896;SDS011;39629;51.400;5.494;2023-12-20T03:55:56;11.30;;;2.53;;
47896;SDS011;39629;51.400;5.494;2023-12-20T04:00:58;11.45;;;2.90;;
47896;SDS011;39629;51.400;5.494;2023-12-20T04:06:00;14.25;;;2.40;;
47896;SDS011;39629;51.400;5.494;2023-12-20T04:11:03;14.18;;;2.40;;
47896;SDS011;39629;51.400;5.494;2023-12-20T04:16:05;12.70;;;2.45;;
47896;SDS011;39629;51.400;5.494;2023-12-20T04:21:07;8.90;;;2.20;;
47896;SDS011;39629;51.400;5.494;2023-12-20T04:26:10;9.85;;;2.42;;
47896;SDS011;39629;51.400;5.494;2023-12-20T04:31:11;6.13;;;2.05;;
47896;SDS011;39629;51.400;5.494;2023-12-20T04:36:13;14.35;;;2.92;;
47896;SDS011;39629;51.400;5.494;2023-12-20T04:41:16;12.55;;;2.22;;
47896;SDS011;39629;51.400;5.494;2023-12-20T04:46:18;12.37;;;2.63;;
47896;SDS011;39629;51.400;5.494;2023-12-20T04:51:20;17.15;;;2.55;;
47896;SDS011;39629;51.400;5.494;2023-12-20T04:56:23;9.27;;;2.72;;
47896;SDS011;39629;51.400;5.494;2023-12-20T05:01:25;14.13;;;2.67;;
47896;SDS011;39629;51.400;5.494;2023-12-20T05:06:27;11.30;;;2.67;;
47896;SDS011;39629;51.400;5.494;2023-12-20T05:11:30;16.10;;;2.50;;
47896;SDS011;39629;51.400;5.494;2023-12-20T05:16:32;12.77;;;2.80;;
47896;SDS011;39629;51.400;5.494;2023-12-20T05:21:33;12.80;;;2.50;;
47896;SDS011;39629;51.400;5.494;2023-12-20T05:26:37;13.45;;;2.53;;
47896;SDS011;39629;51.400;5.494;2023-12-20T05:31:39;19.95;;;2.35;;
47896;SDS011;39629;51.400;5.494;2023-12-20T05:36:40;9.60;;;1.90;;
47896;SDS011;39629;51.400;5.494;2023-12-20T05:41:43;11.52;;;2.25;;
47896;SDS011;39629;51.400;5.494;2023-12-20T05:46:45;11.68;;;2.10;;
47896;SDS011;39629;51.400;5.494;2023-12-20T05:51:46;15.00;;;2.50;;
47896;SDS011;39629;51.400;5.494;2023-12-20T05:56:49;9.93;;;2.90;;
47896;SDS011;39629;51.400;5.494;2023-12-20T06:01:51;13.68;;;2.30;;
47896;SDS011;39629;51.400;5.494;2023-12-20T06:06:54;8.18;;;1.95;;
47896;SDS011;39629;51.400;5.494;2023-12-20T06:11:57;14.45;;;2.45;;
47896;SDS011;39629;51.400;5.494;2023-12-20T06:16:58;13.70;;;2.40;;
47896;SDS011;39629;51.400;5.494;2023-12-20T06:22:01;11.35;;;2.22;;
47896;SDS011;39629;51.400;5.494;2023-12-20T06:27:04;10.50;;;2.42;;
47896;SDS011;39629;51.400;5.494;2023-12-20T06:32:06;11.88;;;1.73;;
47896;SDS011;39629;51.400;5.494;2023-12-20T06:37:08;10.55;;;1.90;;
47896;SDS011;39629;51.400;5.494;2023-12-20T06:42:11;8.90;;;2.00;;
47896;SDS011;39629;51.400;5.494;2023-12-20T06:47:12;12.15;;;1.88;;
47896;SDS011;39629;51.400;5.494;2023-12-20T06:52:14;9.73;;;2.13;;
47896;SDS011;39629;51.400;5.494;2023-12-20T06:57:17;14.95;;;2.10;;
47896;SDS011;39629;51.400;5.494;2023-12-20T07:02:20;14.03;;;2.53;;
47896;SDS011;39629;51.400;5.494;2023-12-20T07:07:22;14.18;;;2.42;;
47896;SDS011;39629;51.400;5.494;2023-12-20T07:12:26;9.70;;;1.73;;
47896;SDS011;39629;51.400;5.494;2023-12-20T07:17:27;10.43;;;1.80;;
47896;SDS011;39629;51.400;5.494;2023-12-20T07:22:29;10.93;;;1.65;;
47896;SDS011;39629;51.400;5.494;2023-12-20T07:27:33;11.45;;;2.10;;
47896;SDS011;39629;51.400;5.494;2023-12-20T07:32:34;11.80;;;1.52;;
47896;SDS011;39629;51.400;5.494;2023-12-20T07:37:36;12.82;;;2.13;;
47896;SDS011;39629;51.400;5.494;2023-12-20T07:42:39;9.23;;;1.80;;
47896;SDS011;39629;51.400;5.494;2023-12-20T07:47:41;16.23;;;1.77;;
47896;SDS011;39629;51.400;5.494;2023-12-20T07:52:42;12.45;;;1.98;;
47896;SDS011;39629;51.400;5.494;2023-12-20T07:57:45;10.57;;;1.98;;
47896;SDS011;39629;51.400;5.494;2023-12-20T08:02:47;17.67;;;2.22;;
47896;SDS011;39629;51.400;5.494;2023-12-20T08:07:49;8.48;;;1.80;;
47896;SDS011;39629;51.400;5.494;2023-12-20T08:12:52;14.77;;;2.00;;
47896;SDS011;39629;51.400;5.494;2023-12-20T08:17:53;7.65;;;1.92;;
47896;SDS011;39629;51.400;5.494;2023-12-20T08:22:55;7.32;;;2.00;;
47896;SDS011;39629;51.400;5.494;2023-12-20T08:27:58;9.50;;;2.15;;
47896;SDS011;39629;51.400;5.494;2023-12-20T08:33:00;12.93;;;2.40;;
47896;SDS011;39629;51.400;5.494;2023-12-20T08:38:02;10.65;;;1.95;;
47896;SDS011;39629;51.400;5.494;2023-12-20T08:43:06;11.77;;;2.25;;
47896;SDS011;39629;51.400;5.494;2023-12-20T08:48:08;12.27;;;1.60;;
47896;SDS011;39629;51.400;5.494;2023-12-20T08:53:09;11.80;;;1.80;;
47896;SDS011;39629;51.400;5.494;2023-12-20T08:58:13;12.63;;;1.73;;
47896;SDS011;39629;51.400;5.494;2023-12-20T09:03:15;13.80;;;2.25;;
47896;SDS011;39629;51.400;5.494;2023-12-20T09:08:16;10.43;;;2.05;;
47896;SDS011;39629;51.400;5.494;2023-12-20T09:13:19;7.47;;;1.80;;
47896;SDS011;39629;51.400;5.494;2023-12-20T09:18:22;22.90;;;2.55;;
47896;SDS011;39629;51.400;5.494;2023-12-20T09:23:24;11.50;;;2.05;;
47896;SDS011;39629;51.400;5.494;2023-12-20T09:28:27;10.45;;;2.35;;
47896;SDS011;39629;51.400;5.494;2023-12-20T09:33:29;9.63;;;1.88;;
47896;SDS011;39629;51.400;5.494;2023-12-20T09:38:30;10.95;;;2.15;;
47896;SDS011;39629;51.400;5.494;2023-12-20T09:43:33;13.05;;;2.72;;
47896;SDS011;39629;51.400;5.494;2023-12-20T09:48:38;9.00;;;2.13;;
47896;SDS011;39629;51.400;5.494;2023-12-20T09:53:41;11.68;;;2.38;;
47896;SDS011;39629;51.400;5.494;2023-12-20T09:58:45;13.85;;;2.97;;
47896;SDS011;39629;51.400;5.494;2023-12-20T10:03:47;15.00;;;2.50;;
47896;SDS011;39629;51.400;5.494;2023-12-20T10:08:49;10.05;;;2.60;;
47896;SDS011;39629;51.400;5.494;2023-12-20T10:13:52;15.75;;;2.60;;
47896;SDS011;39629;51.400;5.494;2023-12-20T10:19:00;12.57;;;2.60;;
47896;SDS011;39629;51.400;5.494;2023-12-20T10:24:02;16.65;;;2.72;;
47896;SDS011;39629;51.400;5.494;2023-12-20T10:29:05;9.55;;;2.13;;
47896;SDS011;39629;51.400;5.494;2023-12-20T10:34:07;10.10;;;2.13;;
47896;SDS011;39629;51.400;5.494;2023-12-20T10:39:09;8.25;;;1.60;;
47896;SDS011;39629;51.400;5.494;2023-12-20T10:44:13;11.48;;;2.13;;
47896;SDS011;39629;51.400;5.494;2023-12-20T10:49:16;14.25;;;2.00;;
47896;SDS011;39629;51.400;5.494;2023-12-20T10:54:19;6.85;;;1.70;;
47896;SDS011;39629;51.400;5.494;2023-12-20T10:59:22;11.23;;;2.17;;
47896;SDS011;39629;51.400;5.494;2023-12-20T11:04:28;9.43;;;1.63;;
47896;SDS011;39629;51.400;5.494;2023-12-20T11:09:38;13.98;;;2.30;;
47896;SDS011;39629;51.400;5.494;2023-12-20T11:14:46;11.30;;;2.25;;
47896;SDS011;39629;51.400;5.494;2023-12-20T11:25:08;11.20;;;2.20;;
47896;SDS011;39629;51.400;5.494;2023-12-20T11:30:13;13.27;;;2.22;;
47896;SDS011;39629;51.400;5.494;2023-12-20T11:35:19;11.00;;;2.30;;
47896;SDS011;39629;51.400;5.494;2023-12-20T11:40:21;7.15;;;1.63;;
47896;SDS011;39629;51.400;5.494;2023-12-20T11:50:29;8.05;;;1.75;;
47896;SDS011;39629;51.400;5.494;2023-12-20T11:55:30;8.80;;;1.80;;
47896;SDS011;39629;51.400;5.494;2023-12-20T12:00:33;12.90;;;2.00;;
47896;SDS011;39629;51.400;5.494;2023-12-20T12:05:35;8.98;;;2.50;;
47896;SDS011;39629;51.400;5.494;2023-12-20T12:10:37;9.00;;;2.22;;
47896;SDS011;39629;51.400;5.494;2023-12-20T12:15:40;10.15;;;2.17;;
47896;SDS011;39629;51.400;5.494;2023-12-20T12:20:42;7.38;;;1.92;;
47896;SDS011;39629;51.400;5.494;2023-12-20T12:25:44;14.70;;;2.65;;
47896;SDS011;39629;51.400;5.494;2023-12-20T12:30:57;8.30;;;2.40;;
47896;SDS011;39629;51.400;5.494;2023-12-20T12:35:59;10.98;;;2.35;;
47896;SDS011;39629;51.400;5.494;2023-12-20T12:41:01;12.73;;;2.75;;
47896;SDS011;39629;51.400;5.494;2023-12-20T12:46:04;9.27;;;2.50;;
47896;SDS011;39629;51.400;5.494;2023-12-20T12:51:06;12.23;;;2.70;;
47896;SDS011;39629;51.400;5.494;2023-12-20T12:56:12;14.93;;;3.13;;
47896;SDS011;39629;51.400;5.494;2023-12-20T13:01:15;12.55;;;3.45;;
47896;SDS011;39629;51.400;5.494;2023-12-20T13:06:17;13.55;;;3.50;;
47896;SDS011;39629;51.400;5.494;2023-12-20T13:11:19;11.43;;;3.65;;
47896;SDS011;39629;51.400;5.494;2023-12-20T13:16:22;15.10;;;3.80;;
47896;SDS011;39629;51.400;5.494;2023-12-20T13:21:24;11.70;;;3.28;;
47896;SDS011;39629;51.400;5.494;2023-12-20T13:26:26;11.35;;;3.28;;
47896;SDS011;39629;51.400;5.494;2023-12-20T13:31:29;11.77;;;3.10;;
47896;SDS011;39629;51.400;5.494;2023-12-20T13:36:31;11.88;;;3.25;;
47896;SDS011;39629;51.400;5.494;2023-12-20T13:41:33;9.07;;;3.20;;
47896;SDS011;39629;51.400;5.494;2023-12-20T13:46:37;9.35;;;2.70;;
47896;SDS011;39629;51.400;5.494;2023-12-20T13:51:38;11.05;;;3.13;;
47896;SDS011;39629;51.400;5.494;2023-12-20T13:56:40;9.82;;;2.83;;
47896;SDS011;39629;51.400;5.494;2023-12-20T14:01:43;11.82;;;3.42;;
47896;SDS011;39629;51.400;5.494;2023-12-20T14:06:44;9.52;;;3.10;;
47896;SDS011;39629;51.400;5.494;2023-12-20T14:11:46;9.93;;;2.58;;
47896;SDS011;39629;51.400;5.494;2023-12-20T14:16:49;6.18;;;2.40;;
47896;SDS011;39629;51.400;5.494;2023-12-20T14:21:51;12.85;;;2.78;;
47896;SDS011;39629;51.400;5.494;2023-12-20T14:26:53;8.23;;;2.53;;
47896;SDS011;39629;51.400;5.494;2023-12-20T14:31:56;9.77;;;2.65;;
47896;SDS011;39629;51.400;5.494;2023-12-20T14:36:57;14.75;;;2.92;;
47896;SDS011;39629;51.400;5.494;2023-12-20T14:41:59;10.65;;;2.40;;
47896;SDS011;39629;51.400;5.494;2023-12-20T14:47:02;10.73;;;2.63;;
47896;SDS011;39629;51.400;5.494;2023-12-20T14:52:04;10.93;;;2.30;;
47896;SDS011;39629;51.400;5.494;2023-12-20T14:57:06;8.02;;;2.90;;
47896;SDS011;39629;51.400;5.494;2023-12-20T15:02:09;8.93;;;2.10;;
47896;SDS011;39629;51.400;5.494;2023-12-20T15:07:11;6.05;;;2.00;;
47896;SDS011;39629;51.400;5.494;2023-12-20T15:12:13;9.48;;;2.25;;
47896;SDS011;39629;51.400;5.494;2023-12-20T15:17:16;9.60;;;2.40;;
47896;SDS011;39629;51.400;5.494;2023-12-20T15:22:18;7.28;;;2.33;;
47896;SDS011;39629;51.400;5.494;2023-12-20T15:27:19;10.60;;;2.50;;
47896;SDS011;39629;51.400;5.494;2023-12-20T15:32:22;10.45;;;2.65;;
47896;SDS011;39629;51.400;5.494;2023-12-20T15:37:24;10.35;;;2.60;;
47896;SDS011;39629;51.400;5.494;2023-12-20T15:42:26;7.53;;;2.17;;
47896;SDS011;39629;51.400;5.494;2023-12-20T15:47:29;9.70;;;2.40;;
47896;SDS011;39629;51.400;5.494;2023-12-20T15:52:31;8.50;;;2.45;;
47896;SDS011;39629;51.400;5.494;2023-12-20T15:57:33;7.03;;;2.45;;
47896;SDS011;39629;51.400;5.494;2023-12-20T16:02:36;6.63;;;2.28;;
47896;SDS011;39629;51.400;5.494;2023-12-20T16:07:37;9.43;;;2.30;;
47896;SDS011;39629;51.400;5.494;2023-12-20T16:12:39;7.35;;;2.17;;
47896;SDS011;39629;51.400;5.494;2023-12-20T16:17:42;11.27;;;2.13;;
47896;SDS011;39629;51.400;5.494;2023-12-20T16:22:44;6.95;;;2.17;;
47896;SDS011;39629;51.400;5.494;2023-12-20T16:27:45;11.55;;;2.60;;
47896;SDS011;39629;51.400;5.494;2023-12-20T16:32:49;7.47;;;2.10;;
47896;SDS011;39629;51.400;5.494;2023-12-20T16:37:51;8.73;;;2.75;;
47896;SDS011;39629;51.400;5.494;2023-12-20T16:42:53;12.73;;;2.60;;
47896;SDS011;39629;51.400;5.494;2023-12-20T16:47:57;7.25;;;2.63;;
47896;SDS011;39629;51.400;5.494;2023-12-20T16:52:59;10.07;;;2.58;;
47896;SDS011;39629;51.400;5.494;2023-12-20T16:58:00;8.23;;;2.75;;
47896;SDS011;39629;51.400;5.494;2023-12-20T17:03:04;8.50;;;2.80;;
47896;SDS011;39629;51.400;5.494;2023-12-20T17:08:06;12.77;;;3.25;;
47896;SDS011;39629;51.400;5.494;2023-12-20T17:13:08;11.07;;;3.00;;
47896;SDS011;39629;51.400;5.494;2023-12-20T17:18:11;6.57;;;2.63;;
47896;SDS011;39629;51.400;5.494;2023-12-20T17:23:12;11.50;;;3.30;;
47896;SDS011;39629;51.400;5.494;2023-12-20T17:28:14;8.88;;;2.50;;
47896;SDS011;39629;51.400;5.494;2023-12-20T17:33:17;13.73;;;3.03;;
47896;SDS011;39629;51.400;5.494;2023-12-20T17:38:19;7.60;;;3.05;;
47896;SDS011;39629;51.400;5.494;2023-12-20T17:43:20;7.32;;;2.90;;
47896;SDS011;39629;51.400;5.494;2023-12-20T17:48:23;17.50;;;3.10;;
47896;SDS011;39629;51.400;5.494;2023-12-20T17:53:25;7.88;;;3.05;;
47896;SDS011;39629;51.400;5.494;2023-12-20T17:58:27;9.52;;;3.40;;
47896;SDS011;39629;51.400;5.494;2023-12-20T18:03:30;8.48;;;3.38;;
47896;SDS011;39629;51.400;5.494;2023-12-20T18:08:31;12.48;;;3.55;;
47896;SDS011;39629;51.400;5.494;2023-12-20T18:13:33;7.25;;;3.08;;
47896;SDS011;39629;51.400;5.494;2023-12-20T18:18:36;8.48;;;3.17;;
47896;SDS011;39629;51.400;5.494;2023-12-20T18:23:38;15.80;;;3.60;;
47896;SDS011;39629;51.400;5.494;2023-12-20T18:28:40;10.10;;;3.42;;
47896;SDS011;39629;51.400;5.494;2023-12-20T18:33:43;11.57;;;3.72;;
47896;SDS011;39629;51.400;5.494;2023-12-20T18:38:45;12.05;;;3.85;;
47896;SDS011;39629;51.400;5.494;2023-12-20T18:43:46;8.57;;;3.70;;
47896;SDS011;39629;51.400;5.494;2023-12-20T18:48:49;10.70;;;3.60;;
47896;SDS011;39629;51.400;5.494;2023-12-20T18:53:53;9.65;;;4.03;;
47896;SDS011;39629;51.400;5.494;2023-12-20T18:58:55;12.32;;;3.92;;
47896;SDS011;39629;51.400;5.494;2023-12-20T19:03:58;11.95;;;4.32;;
47896;SDS011;39629;51.400;5.494;2023-12-20T19:09:00;9.23;;;3.67;;
47896;SDS011;39629;51.400;5.494;2023-12-20T19:14:02;12.80;;;4.13;;
47896;SDS011;39629;51.400;5.494;2023-12-20T19:19:06;7.57;;;3.90;;
47896;SDS011;39629;51.400;5.494;2023-12-20T19:24:08;9.15;;;3.97;;
47896;SDS011;39629;51.400;5.494;2023-12-20T19:29:09;11.68;;;4.10;;
47896;SDS011;39629;51.400;5.494;2023-12-20T19:34:12;8.73;;;3.97;;
47896;SDS011;39629;51.400;5.494;2023-12-20T19:39:14;11.07;;;3.88;;
47896;SDS011;39629;51.400;5.494;2023-12-20T19:44:16;11.93;;;3.90;;
47896;SDS011;39629;51.400;5.494;2023-12-20T19:49:21;9.93;;;3.63;;
47896;SDS011;39629;51.400;5.494;2023-12-20T19:54:22;8.15;;;3.75;;
47896;SDS011;39629;51.400;5.494;2023-12-20T19:59:24;12.70;;;3.80;;
47896;SDS011;39629;51.400;5.494;2023-12-20T20:04:27;8.68;;;3.65;;
47896;SDS011;39629;51.400;5.494;2023-12-20T20:09:29;8.90;;;3.47;;
47896;SDS011;39629;51.400;5.494;2023-12-20T20:14:31;12.35;;;3.53;;
47896;SDS011;39629;51.400;5.494;2023-12-20T20:19:34;9.38;;;3.90;;
47896;SDS011;39629;51.400;5.494;2023-12-20T20:24:36;7.03;;;3.50;;
47896;SDS011;39629;51.400;5.494;2023-12-20T20:29:37;9.32;;;3.63;;
47896;SDS011;39629;51.400;5.494;2023-12-20T20:34:40;8.98;;;3.17;;
47896;SDS011;39629;51.400;5.494;2023-12-20T20:39:42;9.10;;;3.58;;
47896;SDS011;39629;51.400;5.494;2023-12-20T20:44:44;9.52;;;3.33;;
47896;SDS011;39629;51.400;5.494;2023-12-20T20:49:48;8.00;;;2.88;;
47896;SDS011;39629;51.400;5.494;2023-12-20T20:54:50;12.45;;;3.20;;
47896;SDS011;39629;51.400;5.494;2023-12-20T20:59:52;8.23;;;3.08;;
47896;SDS011;39629;51.400;5.494;2023-12-20T21:04:55;6.50;;;3.20;;
47896;SDS011;39629;51.400;5.494;2023-12-20T21:09:57;7.40;;;3.10;;
47896;SDS011;39629;51.400;5.494;2023-12-20T21:14:59;10.18;;;3.80;;
47896;SDS011;39629;51.400;5.494;2023-12-20T21:20:02;11.88;;;3.70;;
47896;SDS011;39629;51.400;5.494;2023-12-20T21:25:05;9.27;;;3.67;;
47896;SDS011;39629;51.400;5.494;2023-12-20T21:30:09;9.37;;;3.83;;
47896;SDS011;39629;51.400;5.494;2023-12-20T21:35:12;10.60;;;3.70;;
47896;SDS011;39629;51.400;5.494;2023-12-20T21:40:14;6.93;;;3.40;;
47896;SDS011;39629;51.400;5.494;2023-12-20T21:45:16;14.70;;;4.47;;
47896;SDS011;39629;51.400;5.494;2023-12-20T21:50:19;9.50;;;4.60;;
47896;SDS011;39629;51.400;5.494;2023-12-20T21:55:22;13.10;;;5.00;;
47896;SDS011;39629;51.400;5.494;2023-12-20T22:00:24;16.00;;;5.55;;
47896;SDS011;39629;51.400;5.494;2023-12-20T22:05:28;9.80;;;4.70;;
47896;SDS011;39629;51.400;5.494;2023-12-20T22:10:30;11.20;;;4.78;;
47896;SDS011;39629;51.400;5.494;2023-12-20T22:15:32;12.25;;;5.18;;
47896;SDS011;39629;51.400;5.494;2023-12-20T22:20:34;10.38;;;5.25;;
47896;SDS011;39629;51.400;5.494;2023-12-20T22:25:39;15.20;;;5.10;;
47896;SDS011;39629;51.400;5.494;2023-12-20T22:30:41;11.85;;;5.05;;
47896;SDS011;39629;51.400;5.494;2023-12-20T22:35:44;9.88;;;4.82;;
47896;SDS011;39629;51.400;5.494;2023-12-20T22:40:45;12.00;;;5.30;;
47896;SDS011;39629;51.400;5.494;2023-12-20T22:45:47;13.77;;;5.68;;
47896;SDS011;39629;51.400;5.494;2023-12-20T22:50:50;12.40;;;5.75;;
47896;SDS011;39629;51.400;5.494;2023-12-20T22:55:52;9.00;;;5.03;;
47896;SDS011;39629;51.400;5.494;2023-12-20T23:00:53;11.48;;;4.63;;
47896;SDS011;39629;51.400;5.494;2023-12-20T23:05:56;8.10;;;3.70;;
47896;SDS011;39629;51.400;5.494;2023-12-20T23:10:58;8.02;;;4.50;;
47896;SDS011;39629;51.400;5.494;2023-12-20T23:16:00;8.75;;;4.60;;
47896;SDS011;39629;51.400;5.494;2023-12-20T23:21:03;9.57;;;4.60;;
47896;SDS011;39629;51.400;5.494;2023-12-20T23:26:05;8.25;;;4.68;;
47896;SDS011;39629;51.400;5.494;2023-12-20T23:31:06;10.18;;;5.25;;
47896;SDS011;39629;51.400;5.494;2023-12-20T23:36:10;10.27;;;4.90;;
47896;SDS011;39629;51.400;5.494;2023-12-20T23:41:12;8.60;;;4.68;;
47896;SDS011;39629;51.400;5.494;2023-12-20T23:46:13;9.80;;;4.70;;
47896;SDS011;39629;51.400;5.494;2023-12-20T23:51:16;12.38;;;4.93;;
47896;SDS011;39629;51.400;5.494;2023-12-20T23:56:18;10.70;;;4.75;;
